createdAt,value
2023-05-25T00:01:16.216Z,17.70
2023-05-25T00:06:20.059Z,13.90
2023-05-25T00:11:23.478Z,14.70
2023-05-25T00:16:25.490Z,14.40
2023-05-25T00:21:27.542Z,12.30
2023-05-25T00:26:29.245Z,18.40
2023-05-25T00:31:33.538Z,10.10
2023-05-25T00:36:35.497Z,10.90
2023-05-25T00:41:41.591Z,13.40
2023-05-25T00:46:52.075Z,12.60
2023-05-25T00:51:54.265Z,18.70
2023-05-25T00:57:06.622Z,12.30
2023-05-25T01:02:11.073Z,14.30
2023-05-25T01:07:18.715Z,13.90
2023-05-25T01:12:22.832Z,12.60
2023-05-25T01:17:26.595Z,12.40
2023-05-25T01:22:32.600Z,19.70
2023-05-25T01:27:46.935Z,16.80
2023-05-25T01:32:49.487Z,13.00
2023-05-25T01:37:52.460Z,17.60
2023-05-25T01:42:54.337Z,8.40
2023-05-25T01:48:30.526Z,15.40
2023-05-25T01:53:52.655Z,14.40
2023-05-25T01:58:57.910Z,9.50
2023-05-25T02:04:01.192Z,14.10
2023-05-25T02:09:03.350Z,18.10
2023-05-25T02:14:05.717Z,13.40
2023-05-25T02:19:07.488Z,14.20
2023-05-25T02:24:10.313Z,10.50
2023-05-25T02:29:12.295Z,14.70
2023-05-25T02:34:14.252Z,12.10
2023-05-25T02:39:16.120Z,12.20
2023-05-25T02:44:18.125Z,11.70
2023-05-25T02:49:20.107Z,11.80
2023-05-25T02:54:22.397Z,11.90
2023-05-25T02:59:25.123Z,15.10
2023-05-25T03:04:27.288Z,12.20
2023-05-25T03:09:29.173Z,13.40
2023-05-25T03:14:31.222Z,12.40
2023-05-25T03:19:38.229Z,12.00
2023-05-25T03:24:41.813Z,13.80
2023-05-25T03:29:44.239Z,15.20
2023-05-25T03:34:46.174Z,15.40
2023-05-25T03:39:49.713Z,8.50
2023-05-25T03:44:52.478Z,13.40
2023-05-25T03:49:54.422Z,11.90
2023-05-25T03:54:56.774Z,16.30
2023-05-25T03:59:59.386Z,11.20
2023-05-25T04:05:01.332Z,15.10
2023-05-25T04:10:04.836Z,12.70
2023-05-25T04:15:09.548Z,17.70
2023-05-25T04:20:22.783Z,19.90
2023-05-25T04:25:27.947Z,11.30
2023-05-25T04:30:31.938Z,14.50
2023-05-25T04:35:45.565Z,18.40
2023-05-25T04:45:51.502Z,17.70
2023-05-25T04:50:55.981Z,21.60
2023-05-25T04:55:59.023Z,17.90
2023-05-25T05:01:00.857Z,18.10
2023-05-25T05:06:03.513Z,12.50
2023-05-25T05:11:06.444Z,17.10
2023-05-25T05:16:09.026Z,23.40
2023-05-25T05:21:10.846Z,20.70
2023-05-25T05:26:15.120Z,21.50
2023-05-25T05:31:18.526Z,19.40
2023-05-25T05:36:20.890Z,21.30
2023-05-25T05:41:23.491Z,19.10
2023-05-25T05:46:25.554Z,15.80
2023-05-25T05:51:27.252Z,15.30
2023-05-25T05:56:29.070Z,19.60
2023-05-25T06:01:31.639Z,17.40
2023-05-25T06:06:35.101Z,23.80
2023-05-25T06:11:39.929Z,24.90
2023-05-25T06:16:43.701Z,16.60
2023-05-25T06:21:45.650Z,11.10
2023-05-25T06:26:47.411Z,19.10
2023-05-25T06:31:50.051Z,15.70
2023-05-25T06:36:52.863Z,13.60
2023-05-25T06:41:55.281Z,14.30
2023-05-25T06:47:05.956Z,11.40
2023-05-25T06:52:07.685Z,10.60
2023-05-25T06:57:09.363Z,18.90
2023-05-25T07:02:11.404Z,13.00
2023-05-25T07:07:14.177Z,15.00
2023-05-25T07:12:15.888Z,17.50
2023-05-25T07:17:17.571Z,12.90
2023-05-25T07:22:19.653Z,11.50
2023-05-25T07:27:21.346Z,10.60
2023-05-25T07:32:23.056Z,11.50
2023-05-25T07:37:24.885Z,12.70
2023-05-25T07:42:33.071Z,12.90
2023-05-25T07:47:34.885Z,11.70
2023-05-25T07:52:38.317Z,12.50
2023-05-25T07:57:40.389Z,17.50
2023-05-25T08:02:42.254Z,11.80
2023-05-25T08:07:46.088Z,11.10
2023-05-25T08:12:50.115Z,12.00
2023-05-25T08:17:52.333Z,10.20
2023-05-25T08:22:54.513Z,12.90
2023-05-25T08:27:56.300Z,11.80
2023-05-25T08:32:58.047Z,9.30
2023-05-25T08:37:59.869Z,9.90
2023-05-25T08:43:01.710Z,11.10
2023-05-25T08:48:09.384Z,14.10
2023-05-25T08:53:12.755Z,11.30
2023-05-25T09:03:22.401Z,10.50
2023-05-25T09:08:25.079Z,10.80
2023-05-25T09:13:27.081Z,9.50
2023-05-25T09:18:29.030Z,10.00
2023-05-25T09:23:31.566Z,12.90
2023-05-25T09:28:33.278Z,13.60
2023-05-25T09:33:40.032Z,12.30
2023-05-25T09:38:42.168Z,12.00
2023-05-25T09:43:54.791Z,11.00
2023-05-25T09:49:10.621Z,13.00
2023-05-25T09:54:12.935Z,10.80
2023-05-25T09:59:15.134Z,11.70
2023-05-25T10:04:16.922Z,11.60
2023-05-25T10:09:20.269Z,10.20
2023-05-25T10:14:30.325Z,14.00
2023-05-25T10:19:41.389Z,13.50
2023-05-25T10:24:45.175Z,14.30
2023-05-25T10:29:49.733Z,11.10
2023-05-25T10:34:52.675Z,11.50
2023-05-25T10:44:57.935Z,15.30
2023-05-25T10:50:02.476Z,9.90
2023-05-25T10:55:15.353Z,12.00
2023-05-25T11:00:19.428Z,10.90
2023-05-25T11:05:31.263Z,12.70
2023-05-25T11:10:48.099Z,12.10
2023-05-25T11:16:26.140Z,12.90
2023-05-25T11:21:32.223Z,14.30
2023-05-25T11:26:35.642Z,9.50
2023-05-25T11:31:42.235Z,14.50
2023-05-25T11:36:45.625Z,11.70
2023-05-25T11:41:55.401Z,14.50
2023-05-25T11:47:04.669Z,10.20
2023-05-25T11:52:07.534Z,14.40
2023-05-25T11:57:20.681Z,11.60
2023-05-25T12:02:24.030Z,11.10
2023-05-25T12:07:27.556Z,17.90
2023-05-25T12:12:29.269Z,15.60
2023-05-25T12:17:31.034Z,18.70
2023-05-25T12:22:33.544Z,14.70
2023-05-25T12:27:35.794Z,15.30
2023-05-25T12:33:03.863Z,14.50
2023-05-25T12:38:14.633Z,14.30
2023-05-25T12:43:17.626Z,14.30
2023-05-25T12:48:26.504Z,19.40
2023-05-25T12:53:29.137Z,15.80
2023-05-25T12:58:30.947Z,16.10
2023-05-25T13:03:33.173Z,7.60
2023-05-25T13:08:34.894Z,15.60
2023-05-25T13:13:37.461Z,17.00
2023-05-25T13:18:40.106Z,15.20
2023-05-25T13:23:41.828Z,17.70
2023-05-25T13:28:43.541Z,13.70
2023-05-25T13:33:45.647Z,16.80
2023-05-25T13:38:47.380Z,18.20
2023-05-25T13:43:49.600Z,15.70
2023-05-25T13:48:51.307Z,19.30
2023-05-25T13:53:53.626Z,17.70
2023-05-25T13:58:55.652Z,14.40
2023-05-25T14:03:59.925Z,17.60
2023-05-25T14:09:01.794Z,16.20
2023-05-25T14:14:13.683Z,17.80
2023-05-25T14:19:18.655Z,16.20
2023-05-25T14:24:20.386Z,15.80
2023-05-25T14:29:22.087Z,13.20
2023-05-25T14:34:23.732Z,14.60
2023-05-25T14:39:25.902Z,18.00
2023-05-25T14:44:28.394Z,16.00
2023-05-25T14:49:30.060Z,12.40
2023-05-25T14:54:31.778Z,12.40
2023-05-25T14:59:33.633Z,13.10
2023-05-25T15:04:35.725Z,19.40
2023-05-25T15:09:42.279Z,19.40
2023-05-25T15:14:43.937Z,17.70
2023-05-25T15:19:45.863Z,15.10
2023-05-25T15:24:47.617Z,22.30
2023-05-25T15:29:49.262Z,21.20
2023-05-25T15:34:50.960Z,17.60
2023-05-25T15:39:52.690Z,16.40
2023-05-25T15:44:54.406Z,16.10
2023-05-25T15:49:56.150Z,12.90
2023-05-25T15:54:58.171Z,16.40
2023-05-25T15:59:59.824Z,14.30
2023-05-25T16:05:01.653Z,18.10
2023-05-25T16:10:03.684Z,16.50
2023-05-25T16:15:06.498Z,17.60
2023-05-25T16:20:09.343Z,17.80
2023-05-25T16:25:11.492Z,15.60
2023-05-25T16:30:13.843Z,16.10
2023-05-25T16:35:15.799Z,15.00
2023-05-25T16:40:17.635Z,16.60
2023-05-25T16:45:21.079Z,15.90
2023-05-25T16:50:22.864Z,15.20
2023-05-25T16:55:24.680Z,16.40
2023-05-25T17:00:26.385Z,16.70
2023-05-25T17:05:28.114Z,13.80
2023-05-25T17:10:29.789Z,19.20
2023-05-25T17:15:31.659Z,16.70
2023-05-25T17:20:33.396Z,17.00
2023-05-25T17:25:35.103Z,18.40
2023-05-25T17:30:37.125Z,14.30
2023-05-25T17:35:38.868Z,16.40
2023-05-25T17:40:40.594Z,20.40
2023-05-25T17:45:42.385Z,15.60
2023-05-25T17:50:44.558Z,16.10
2023-05-25T17:55:46.684Z,15.10
2023-05-25T18:00:49.105Z,16.50
2023-05-25T18:05:51.214Z,20.50
2023-05-25T18:10:53.228Z,18.70
2023-05-25T18:15:55.017Z,22.00
2023-05-25T18:20:56.674Z,18.20
2023-05-25T18:25:58.614Z,18.20
2023-05-25T18:31:00.365Z,20.20
2023-05-25T18:36:02.227Z,20.10
2023-05-25T18:41:04.170Z,23.80
2023-05-25T18:46:05.925Z,21.20
2023-05-25T18:51:07.651Z,23.00
2023-05-25T18:56:09.334Z,22.80
2023-05-25T19:01:11.055Z,20.80
2023-05-25T19:06:12.739Z,20.90
2023-05-25T19:11:15.577Z,23.80
2023-05-25T19:16:17.450Z,28.20
2023-05-25T19:21:19.369Z,27.80
2023-05-25T19:26:21.042Z,21.90
2023-05-25T19:31:23.586Z,21.40
2023-05-25T19:36:25.809Z,23.40
2023-05-25T19:41:27.736Z,24.30
2023-05-25T19:46:29.752Z,23.40
2023-05-25T19:51:32.974Z,25.80
2023-05-25T19:56:34.992Z,20.50
2023-05-25T20:01:36.775Z,21.20
2023-05-25T20:06:38.716Z,21.50
2023-05-25T20:11:41.605Z,21.40
2023-05-25T20:16:43.510Z,20.30
2023-05-25T20:21:45.335Z,22.40
2023-05-25T20:26:47.051Z,24.10
2023-05-25T20:31:49.508Z,21.10
2023-05-25T20:36:51.228Z,29.40
2023-05-25T20:41:53.216Z,24.90
2023-05-25T20:46:55.487Z,24.10
2023-05-25T20:51:57.181Z,29.00
2023-05-25T20:57:00.977Z,30.10
2023-05-25T21:02:03.935Z,28.40
2023-05-25T21:07:05.782Z,25.20
2023-05-25T21:12:08.357Z,23.50
2023-05-25T21:17:10.839Z,32.30
2023-05-25T21:22:13.452Z,27.30
2023-05-25T21:27:15.165Z,29.70
2023-05-25T21:32:18.250Z,27.50
2023-05-25T21:37:20.189Z,27.60
2023-05-25T21:42:21.906Z,27.40
2023-05-25T21:47:27.403Z,28.80
2023-05-25T21:52:30.667Z,30.10
2023-05-25T21:57:33.747Z,35.20
2023-05-25T22:02:35.513Z,30.40
2023-05-25T22:07:37.261Z,31.20
2023-05-25T22:12:38.991Z,33.70
2023-05-25T22:17:40.764Z,31.90
2023-05-25T22:22:42.501Z,32.30
2023-05-25T22:27:44.372Z,32.70
2023-05-25T22:32:46.101Z,30.10
2023-05-25T22:37:48.595Z,28.60
2023-05-25T22:42:50.598Z,31.20
2023-05-25T22:47:52.437Z,35.50
2023-05-25T22:52:54.225Z,28.90
2023-05-25T22:57:56.226Z,28.70
2023-05-25T23:02:58.013Z,31.20
2023-05-25T23:07:59.905Z,30.70
2023-05-25T23:13:07.286Z,31.60
2023-05-25T23:18:09.078Z,32.40
2023-05-25T23:23:10.984Z,35.10
2023-05-25T23:28:12.719Z,33.40
2023-05-25T23:33:15.099Z,34.00
2023-05-25T23:38:16.804Z,38.40
2023-05-25T23:43:19.304Z,43.00
2023-05-25T23:48:21.463Z,39.00
2023-05-25T23:53:24.422Z,39.30
2023-05-25T23:58:26.109Z,35.80
